sensor_id;sensor_type;location;lat;lon;timestamp;P1;durP1;ratioP1;P2;durP2;ratioP2
26702;SDS011;14316;51.074;3.704;2024-02-16T00:01:20;5.60;;;4.40;;
26702;SDS011;14316;51.074;3.704;2024-02-16T00:03:45;4.18;;;3.72;;
26702;SDS011;14316;51.074;3.704;2024-02-16T00:06:11;5.65;;;4.10;;
26702;SDS011;14316;51.074;3.704;2024-02-16T00:08:37;4.65;;;4.25;;
26702;SDS011;14316;51.074;3.704;2024-02-16T00:11:04;6.30;;;4.28;;
26702;SDS011;14316;51.074;3.704;2024-02-16T00:13:30;4.80;;;4.30;;
26702;SDS011;14316;51.074;3.704;2024-02-16T00:15:56;4.75;;;4.28;;
26702;SDS011;14316;51.074;3.704;2024-02-16T00:18:22;6.20;;;4.18;;
26702;SDS011;14316;51.074;3.704;2024-02-16T00:20:48;5.25;;;4.50;;
26702;SDS011;14316;51.074;3.704;2024-02-16T00:23:14;6.00;;;4.03;;
26702;SDS011;14316;51.074;3.704;2024-02-16T00:25:39;5.07;;;4.10;;
26702;SDS011;14316;51.074;3.704;2024-02-16T00:28:06;5.75;;;4.20;;
26702;SDS011;14316;51.074;3.704;2024-02-16T00:30:31;5.70;;;4.40;;
26702;SDS011;14316;51.074;3.704;2024-02-16T00:32:57;7.13;;;4.82;;
26702;SDS011;14316;51.074;3.704;2024-02-16T00:35:23;6.20;;;3.92;;
26702;SDS011;14316;51.074;3.704;2024-02-16T00:37:49;5.32;;;4.20;;
26702;SDS011;14316;51.074;3.704;2024-02-16T00:40:14;6.50;;;4.28;;
26702;SDS011;14316;51.074;3.704;2024-02-16T00:42:40;5.68;;;4.28;;
26702;SDS011;14316;51.074;3.704;2024-02-16T00:45:06;6.55;;;4.32;;
26702;SDS011;14316;51.074;3.704;2024-02-16T00:47:32;6.07;;;4.50;;
26702;SDS011;14316;51.074;3.704;2024-02-16T00:49:58;6.15;;;4.40;;
26702;SDS011;14316;51.074;3.704;2024-02-16T00:52:24;6.88;;;4.30;;
26702;SDS011;14316;51.074;3.704;2024-02-16T00:54:49;5.13;;;4.25;;
26702;SDS011;14316;51.074;3.704;2024-02-16T00:57:15;6.43;;;4.22;;
26702;SDS011;14316;51.074;3.704;2024-02-16T00:59:41;7.18;;;4.32;;
26702;SDS011;14316;51.074;3.704;2024-02-16T01:02:07;5.65;;;4.30;;
26702;SDS011;14316;51.074;3.704;2024-02-16T01:04:33;4.68;;;4.00;;
26702;SDS011;14316;51.074;3.704;2024-02-16T01:06:59;5.43;;;4.32;;
26702;SDS011;14316;51.074;3.704;2024-02-16T01:09:24;6.30;;;4.47;;
26702;SDS011;14316;51.074;3.704;2024-02-16T01:11:51;5.95;;;4.30;;
26702;SDS011;14316;51.074;3.704;2024-02-16T01:14:18;4.63;;;4.00;;
26702;SDS011;14316;51.074;3.704;2024-02-16T01:16:43;5.45;;;4.38;;
26702;SDS011;14316;51.074;3.704;2024-02-16T01:19:11;5.47;;;4.63;;
26702;SDS011;14316;51.074;3.704;2024-02-16T01:21:36;4.80;;;4.00;;
26702;SDS011;14316;51.074;3.704;2024-02-16T01:24:02;5.07;;;4.28;;
26702;SDS011;14316;51.074;3.704;2024-02-16T01:26:28;6.38;;;4.13;;
26702;SDS011;14316;51.074;3.704;2024-02-16T01:28:54;6.57;;;4.72;;
26702;SDS011;14316;51.074;3.704;2024-02-16T01:31:20;6.80;;;4.63;;
26702;SDS011;14316;51.074;3.704;2024-02-16T01:33:49;5.30;;;4.40;;
26702;SDS011;14316;51.074;3.704;2024-02-16T01:36:14;6.70;;;4.50;;
26702;SDS011;14316;51.074;3.704;2024-02-16T01:38:40;8.27;;;5.20;;
26702;SDS011;14316;51.074;3.704;2024-02-16T01:41:06;9.68;;;4.80;;
26702;SDS011;14316;51.074;3.704;2024-02-16T01:43:33;6.32;;;4.53;;
26702;SDS011;14316;51.074;3.704;2024-02-16T01:45:59;5.82;;;4.45;;
26702;SDS011;14316;51.074;3.704;2024-02-16T01:48:26;6.03;;;4.68;;
26702;SDS011;14316;51.074;3.704;2024-02-16T01:50:53;10.02;;;4.50;;
26702;SDS011;14316;51.074;3.704;2024-02-16T01:53:19;5.13;;;4.63;;
26702;SDS011;14316;51.074;3.704;2024-02-16T01:55:46;6.05;;;4.15;;
26702;SDS011;14316;51.074;3.704;2024-02-16T01:58:13;5.45;;;4.70;;
26702;SDS011;14316;51.074;3.704;2024-02-16T02:00:39;6.22;;;4.75;;
26702;SDS011;14316;51.074;3.704;2024-02-16T02:03:08;6.47;;;4.78;;
26702;SDS011;14316;51.074;3.704;2024-02-16T02:05:42;6.47;;;4.63;;
26702;SDS011;14316;51.074;3.704;2024-02-16T02:08:16;5.72;;;4.68;;
26702;SDS011;14316;51.074;3.704;2024-02-16T02:10:42;5.28;;;4.70;;
26702;SDS011;14316;51.074;3.704;2024-02-16T02:13:09;6.45;;;4.65;;
26702;SDS011;14316;51.074;3.704;2024-02-16T02:15:35;9.43;;;5.07;;
26702;SDS011;14316;51.074;3.704;2024-02-16T02:18:00;6.45;;;4.95;;
26702;SDS011;14316;51.074;3.704;2024-02-16T02:20:26;5.22;;;4.40;;
26702;SDS011;14316;51.074;3.704;2024-02-16T02:22:52;7.38;;;4.65;;
26702;SDS011;14316;51.074;3.704;2024-02-16T02:25:18;5.97;;;4.82;;
26702;SDS011;14316;51.074;3.704;2024-02-16T02:27:44;6.30;;;4.70;;
26702;SDS011;14316;51.074;3.704;2024-02-16T02:30:10;6.65;;;4.95;;
26702;SDS011;14316;51.074;3.704;2024-02-16T02:32:36;7.72;;;4.75;;
26702;SDS011;14316;51.074;3.704;2024-02-16T02:35:02;5.35;;;4.60;;
26702;SDS011;14316;51.074;3.704;2024-02-16T02:37:29;7.03;;;4.68;;
26702;SDS011;14316;51.074;3.704;2024-02-16T02:39:55;6.60;;;4.60;;
26702;SDS011;14316;51.074;3.704;2024-02-16T02:42:21;6.32;;;4.80;;
26702;SDS011;14316;51.074;3.704;2024-02-16T02:44:47;7.55;;;4.70;;
26702;SDS011;14316;51.074;3.704;2024-02-16T02:47:15;6.65;;;4.35;;
26702;SDS011;14316;51.074;3.704;2024-02-16T02:49:42;7.20;;;4.55;;
26702;SDS011;14316;51.074;3.704;2024-02-16T02:52:08;6.00;;;4.93;;
26702;SDS011;14316;51.074;3.704;2024-02-16T02:54:34;6.20;;;4.53;;
26702;SDS011;14316;51.074;3.704;2024-02-16T02:57:01;5.95;;;3.72;;
26702;SDS011;14316;51.074;3.704;2024-02-16T02:59:28;5.88;;;3.95;;
26702;SDS011;14316;51.074;3.704;2024-02-16T03:01:53;6.45;;;4.72;;
26702;SDS011;14316;51.074;3.704;2024-02-16T03:04:19;5.55;;;4.55;;
26702;SDS011;14316;51.074;3.704;2024-02-16T03:06:45;5.78;;;4.22;;
26702;SDS011;14316;51.074;3.704;2024-02-16T03:09:11;6.70;;;4.90;;
26702;SDS011;14316;51.074;3.704;2024-02-16T03:11:37;4.13;;;3.58;;
26702;SDS011;14316;51.074;3.704;2024-02-16T03:14:04;5.75;;;4.30;;
26702;SDS011;14316;51.074;3.704;2024-02-16T03:16:30;6.82;;;4.20;;
26702;SDS011;14316;51.074;3.704;2024-02-16T03:18:56;5.78;;;4.28;;
26702;SDS011;14316;51.074;3.704;2024-02-16T03:21:22;4.47;;;3.75;;
26702;SDS011;14316;51.074;3.704;2024-02-16T03:23:48;6.70;;;4.13;;
26702;SDS011;14316;51.074;3.704;2024-02-16T03:26:14;5.53;;;4.22;;
26702;SDS011;14316;51.074;3.704;2024-02-16T03:28:43;8.98;;;4.63;;
26702;SDS011;14316;51.074;3.704;2024-02-16T03:31:18;7.88;;;5.05;;
26702;SDS011;14316;51.074;3.704;2024-02-16T03:33:45;6.90;;;4.60;;
26702;SDS011;14316;51.074;3.704;2024-02-16T03:36:11;6.03;;;3.95;;
26702;SDS011;14316;51.074;3.704;2024-02-16T03:38:43;8.15;;;4.50;;
26702;SDS011;14316;51.074;3.704;2024-02-16T03:41:13;5.38;;;3.55;;
26702;SDS011;14316;51.074;3.704;2024-02-16T03:43:39;5.80;;;4.30;;
26702;SDS011;14316;51.074;3.704;2024-02-16T03:46:05;4.72;;;3.50;;
26702;SDS011;14316;51.074;3.704;2024-02-16T03:48:31;8.85;;;4.63;;
26702;SDS011;14316;51.074;3.704;2024-02-16T03:50:57;6.30;;;3.80;;
26702;SDS011;14316;51.074;3.704;2024-02-16T03:53:23;6.18;;;4.43;;
26702;SDS011;14316;51.074;3.704;2024-02-16T03:55:48;4.32;;;3.50;;
26702;SDS011;14316;51.074;3.704;2024-02-16T03:58:14;5.25;;;3.70;;
26702;SDS011;14316;51.074;3.704;2024-02-16T04:00:40;5.13;;;3.88;;
26702;SDS011;14316;51.074;3.704;2024-02-16T04:03:06;5.28;;;4.05;;
26702;SDS011;14316;51.074;3.704;2024-02-16T04:05:32;5.65;;;4.13;;
26702;SDS011;14316;51.074;3.704;2024-02-16T04:08:00;8.77;;;2.42;;
26702;SDS011;14316;51.074;3.704;2024-02-16T04:10:27;6.22;;;4.22;;
26702;SDS011;14316;51.074;3.704;2024-02-16T04:12:56;7.55;;;4.47;;
26702;SDS011;14316;51.074;3.704;2024-02-16T04:15:21;8.15;;;3.67;;
26702;SDS011;14316;51.074;3.704;2024-02-16T04:17:47;5.63;;;4.22;;
26702;SDS011;14316;51.074;3.704;2024-02-16T04:20:15;5.32;;;3.97;;
26702;SDS011;14316;51.074;3.704;2024-02-16T04:22:41;5.18;;;3.95;;
26702;SDS011;14316;51.074;3.704;2024-02-16T04:25:07;7.72;;;4.80;;
26702;SDS011;14316;51.074;3.704;2024-02-16T04:27:34;6.45;;;3.97;;
26702;SDS011;14316;51.074;3.704;2024-02-16T04:30:00;8.48;;;4.60;;
26702;SDS011;14316;51.074;3.704;2024-02-16T04:32:26;6.18;;;4.03;;
26702;SDS011;14316;51.074;3.704;2024-02-16T04:34:52;6.72;;;4.97;;
26702;SDS011;14316;51.074;3.704;2024-02-16T04:37:18;5.63;;;4.32;;
26702;SDS011;14316;51.074;3.704;2024-02-16T04:39:44;5.30;;;4.15;;
26702;SDS011;14316;51.074;3.704;2024-02-16T04:42:10;6.13;;;4.03;;
26702;SDS011;14316;51.074;3.704;2024-02-16T04:44:39;7.85;;;4.50;;
26702;SDS011;14316;51.074;3.704;2024-02-16T04:47:05;6.85;;;4.30;;
26702;SDS011;14316;51.074;3.704;2024-02-16T04:49:31;8.68;;;4.65;;
26702;SDS011;14316;51.074;3.704;2024-02-16T04:51:56;6.82;;;4.82;;
26702;SDS011;14316;51.074;3.704;2024-02-16T04:54:22;7.80;;;4.43;;
26702;SDS011;14316;51.074;3.704;2024-02-16T04:56:48;6.95;;;4.53;;
26702;SDS011;14316;51.074;3.704;2024-02-16T04:59:15;6.43;;;4.22;;
26702;SDS011;14316;51.074;3.704;2024-02-16T05:01:42;6.65;;;4.13;;
26702;SDS011;14316;51.074;3.704;2024-02-16T05:04:10;5.90;;;4.22;;
26702;SDS011;14316;51.074;3.704;2024-02-16T05:06:40;6.90;;;4.15;;
26702;SDS011;14316;51.074;3.704;2024-02-16T05:09:06;10.52;;;5.18;;
26702;SDS011;14316;51.074;3.704;2024-02-16T05:11:34;6.72;;;4.93;;
26702;SDS011;14316;51.074;3.704;2024-02-16T05:14:00;6.75;;;4.95;;
26702;SDS011;14316;51.074;3.704;2024-02-16T05:16:26;7.22;;;4.30;;
26702;SDS011;14316;51.074;3.704;2024-02-16T05:18:52;6.88;;;4.72;;
26702;SDS011;14316;51.074;3.704;2024-02-16T05:21:21;7.13;;;4.45;;
26702;SDS011;14316;51.074;3.704;2024-02-16T05:23:47;8.20;;;5.05;;
26702;SDS011;14316;51.074;3.704;2024-02-16T05:26:13;6.72;;;4.25;;
26702;SDS011;14316;51.074;3.704;2024-02-16T05:28:38;9.95;;;4.95;;
26702;SDS011;14316;51.074;3.704;2024-02-16T05:31:14;5.30;;;4.47;;
26702;SDS011;14316;51.074;3.704;2024-02-16T05:33:42;6.63;;;4.22;;
26702;SDS011;14316;51.074;3.704;2024-02-16T05:36:08;7.53;;;5.25;;
26702;SDS011;14316;51.074;3.704;2024-02-16T05:38:34;7.53;;;5.05;;
26702;SDS011;14316;51.074;3.704;2024-02-16T05:41:05;7.07;;;5.03;;
26702;SDS011;14316;51.074;3.704;2024-02-16T05:43:34;6.78;;;4.18;;
26702;SDS011;14316;51.074;3.704;2024-02-16T05:46:00;11.50;;;4.45;;
26702;SDS011;14316;51.074;3.704;2024-02-16T05:48:26;5.82;;;4.57;;
26702;SDS011;14316;51.074;3.704;2024-02-16T05:50:56;9.52;;;4.68;;
26702;SDS011;14316;51.074;3.704;2024-02-16T05:53:25;8.10;;;4.47;;
26702;SDS011;14316;51.074;3.704;2024-02-16T05:55:50;6.38;;;4.82;;
26702;SDS011;14316;51.074;3.704;2024-02-16T05:58:16;5.60;;;4.97;;
26702;SDS011;14316;51.074;3.704;2024-02-16T06:00:42;6.90;;;4.60;;
26702;SDS011;14316;51.074;3.704;2024-02-16T06:03:08;7.03;;;4.63;;
26702;SDS011;14316;51.074;3.704;2024-02-16T06:05:34;6.72;;;5.32;;
26702;SDS011;14316;51.074;3.704;2024-02-16T06:08:00;8.52;;;5.32;;
26702;SDS011;14316;51.074;3.704;2024-02-16T06:10:25;8.35;;;4.70;;
26702;SDS011;14316;51.074;3.704;2024-02-16T06:12:51;9.38;;;4.38;;
26702;SDS011;14316;51.074;3.704;2024-02-16T06:15:17;7.80;;;5.10;;
26702;SDS011;14316;51.074;3.704;2024-02-16T06:17:42;9.85;;;4.72;;
26702;SDS011;14316;51.074;3.704;2024-02-16T06:20:08;6.78;;;4.93;;
26702;SDS011;14316;51.074;3.704;2024-02-16T06:22:35;10.05;;;5.45;;
26702;SDS011;14316;51.074;3.704;2024-02-16T06:25:02;5.20;;;3.80;;
26702;SDS011;14316;51.074;3.704;2024-02-16T06:27:27;7.50;;;5.68;;
26702;SDS011;14316;51.074;3.704;2024-02-16T06:29:53;8.13;;;4.85;;
26702;SDS011;14316;51.074;3.704;2024-02-16T06:32:21;7.70;;;3.88;;
26702;SDS011;14316;51.074;3.704;2024-02-16T06:34:46;11.10;;;4.95;;
26702;SDS011;14316;51.074;3.704;2024-02-16T06:37:12;7.13;;;5.82;;
26702;SDS011;14316;51.074;3.704;2024-02-16T06:39:39;8.27;;;5.07;;
26702;SDS011;14316;51.074;3.704;2024-02-16T06:42:05;8.15;;;5.10;;
26702;SDS011;14316;51.074;3.704;2024-02-16T06:44:30;11.45;;;5.50;;
26702;SDS011;14316;51.074;3.704;2024-02-16T06:46:56;8.32;;;4.57;;
26702;SDS011;14316;51.074;3.704;2024-02-16T06:49:22;9.50;;;5.57;;
26702;SDS011;14316;51.074;3.704;2024-02-16T06:51:47;12.02;;;6.25;;
26702;SDS011;14316;51.074;3.704;2024-02-16T06:54:13;10.38;;;5.78;;
26702;SDS011;14316;51.074;3.704;2024-02-16T06:56:40;9.65;;;5.50;;
26702;SDS011;14316;51.074;3.704;2024-02-16T06:59:06;7.43;;;5.60;;
26702;SDS011;14316;51.074;3.704;2024-02-16T07:01:32;5.85;;;3.78;;
26702;SDS011;14316;51.074;3.704;2024-02-16T07:03:57;7.00;;;5.28;;
26702;SDS011;14316;51.074;3.704;2024-02-16T07:06:23;5.20;;;4.45;;
26702;SDS011;14316;51.074;3.704;2024-02-16T07:08:49;6.20;;;4.90;;
26702;SDS011;14316;51.074;3.704;2024-02-16T07:11:14;8.57;;;5.43;;
26702;SDS011;14316;51.074;3.704;2024-02-16T07:13:40;9.55;;;3.90;;
26702;SDS011;14316;51.074;3.704;2024-02-16T07:16:07;9.27;;;4.38;;
26702;SDS011;14316;51.074;3.704;2024-02-16T07:18:33;8.52;;;5.32;;
26702;SDS011;14316;51.074;3.704;2024-02-16T07:20:59;6.32;;;3.75;;
26702;SDS011;14316;51.074;3.704;2024-02-16T07:23:26;7.85;;;5.00;;
26702;SDS011;14316;51.074;3.704;2024-02-16T07:25:52;11.15;;;5.30;;
26702;SDS011;14316;51.074;3.704;2024-02-16T07:28:23;7.10;;;4.68;;
26702;SDS011;14316;51.074;3.704;2024-02-16T07:30:53;5.82;;;4.63;;
26702;SDS011;14316;51.074;3.704;2024-02-16T07:33:19;10.85;;;6.25;;
26702;SDS011;14316;51.074;3.704;2024-02-16T07:35:45;8.88;;;3.55;;
26702;SDS011;14316;51.074;3.704;2024-02-16T07:38:11;6.97;;;5.95;;
26702;SDS011;14316;51.074;3.704;2024-02-16T07:40:37;11.13;;;5.03;;
26702;SDS011;14316;51.074;3.704;2024-02-16T07:43:03;6.88;;;4.90;;
26702;SDS011;14316;51.074;3.704;2024-02-16T07:45:30;9.80;;;5.88;;
26702;SDS011;14316;51.074;3.704;2024-02-16T07:47:56;10.10;;;5.63;;
26702;SDS011;14316;51.074;3.704;2024-02-16T07:50:22;9.85;;;5.70;;
26702;SDS011;14316;51.074;3.704;2024-02-16T07:52:49;8.00;;;3.47;;
26702;SDS011;14316;51.074;3.704;2024-02-16T07:55:15;11.00;;;6.50;;
26702;SDS011;14316;51.074;3.704;2024-02-16T07:57:45;4.82;;;3.35;;
26702;SDS011;14316;51.074;3.704;2024-02-16T08:00:12;12.43;;;6.63;;
26702;SDS011;14316;51.074;3.704;2024-02-16T08:02:41;8.68;;;5.30;;
26702;SDS011;14316;51.074;3.704;2024-02-16T08:05:08;9.50;;;6.38;;
26702;SDS011;14316;51.074;3.704;2024-02-16T08:07:38;8.25;;;6.57;;
26702;SDS011;14316;51.074;3.704;2024-02-16T08:10:07;9.85;;;6.03;;
26702;SDS011;14316;51.074;3.704;2024-02-16T08:12:33;11.10;;;5.22;;
26702;SDS011;14316;51.074;3.704;2024-02-16T08:15:01;11.00;;;5.75;;
26702;SDS011;14316;51.074;3.704;2024-02-16T08:17:29;8.00;;;5.35;;
26702;SDS011;14316;51.074;3.704;2024-02-16T08:19:55;10.10;;;5.85;;
26702;SDS011;14316;51.074;3.704;2024-02-16T08:22:20;8.50;;;4.05;;
26702;SDS011;14316;51.074;3.704;2024-02-16T08:24:47;8.85;;;5.78;;
26702;SDS011;14316;51.074;3.704;2024-02-16T08:27:14;10.30;;;4.60;;
26702;SDS011;14316;51.074;3.704;2024-02-16T08:29:41;12.63;;;6.18;;
26702;SDS011;14316;51.074;3.704;2024-02-16T08:32:07;7.95;;;6.28;;
26702;SDS011;14316;51.074;3.704;2024-02-16T08:34:34;10.15;;;6.07;;
26702;SDS011;14316;51.074;3.704;2024-02-16T08:37:02;9.02;;;4.45;;
26702;SDS011;14316;51.074;3.704;2024-02-16T08:39:29;9.07;;;6.10;;
26702;SDS011;14316;51.074;3.704;2024-02-16T08:41:56;10.10;;;5.45;;
26702;SDS011;14316;51.074;3.704;2024-02-16T08:44:22;10.55;;;5.85;;
26702;SDS011;14316;51.074;3.704;2024-02-16T08:46:48;6.68;;;4.38;;
26702;SDS011;14316;51.074;3.704;2024-02-16T08:49:14;9.02;;;5.65;;
26702;SDS011;14316;51.074;3.704;2024-02-16T08:51:41;10.60;;;6.00;;
26702;SDS011;14316;51.074;3.704;2024-02-16T08:54:09;7.60;;;5.65;;
26702;SDS011;14316;51.074;3.704;2024-02-16T08:56:35;10.27;;;5.80;;
26702;SDS011;14316;51.074;3.704;2024-02-16T08:59:02;8.05;;;4.50;;
26702;SDS011;14316;51.074;3.704;2024-02-16T09:01:32;13.88;;;6.90;;
26702;SDS011;14316;51.074;3.704;2024-02-16T09:04:02;11.82;;;5.93;;
26702;SDS011;14316;51.074;3.704;2024-02-16T09:06:29;11.05;;;6.82;;
26702;SDS011;14316;51.074;3.704;2024-02-16T09:08:55;14.02;;;7.05;;
26702;SDS011;14316;51.074;3.704;2024-02-16T09:11:21;7.57;;;4.47;;
26702;SDS011;14316;51.074;3.704;2024-02-16T09:13:48;11.00;;;6.40;;
26702;SDS011;14316;51.074;3.704;2024-02-16T09:16:14;8.95;;;5.97;;
26702;SDS011;14316;51.074;3.704;2024-02-16T09:18:40;12.00;;;8.20;;
26702;SDS011;14316;51.074;3.704;2024-02-16T09:21:06;9.57;;;5.60;;
26702;SDS011;14316;51.074;3.704;2024-02-16T09:23:34;9.65;;;7.18;;
26702;SDS011;14316;51.074;3.704;2024-02-16T09:26:00;9.00;;;6.90;;
26702;SDS011;14316;51.074;3.704;2024-02-16T09:28:29;9.52;;;5.03;;
26702;SDS011;14316;51.074;3.704;2024-02-16T09:30:55;18.65;;;10.05;;
26702;SDS011;14316;51.074;3.704;2024-02-16T09:33:22;15.73;;;10.20;;
26702;SDS011;14316;51.074;3.704;2024-02-16T09:35:49;14.30;;;8.38;;
26702;SDS011;14316;51.074;3.704;2024-02-16T09:38:15;24.00;;;11.07;;
26702;SDS011;14316;51.074;3.704;2024-02-16T09:40:41;20.63;;;12.18;;
26702;SDS011;14316;51.074;3.704;2024-02-16T09:43:08;16.67;;;12.43;;
26702;SDS011;14316;51.074;3.704;2024-02-16T09:45:33;14.95;;;8.35;;
26702;SDS011;14316;51.074;3.704;2024-02-16T09:47:59;17.95;;;12.05;;
26702;SDS011;14316;51.074;3.704;2024-02-16T09:50:27;21.85;;;14.27;;
26702;SDS011;14316;51.074;3.704;2024-02-16T09:52:54;25.60;;;7.07;;
26702;SDS011;14316;51.074;3.704;2024-02-16T09:55:21;17.40;;;12.15;;
26702;SDS011;14316;51.074;3.704;2024-02-16T09:57:47;20.77;;;13.60;;
26702;SDS011;14316;51.074;3.704;2024-02-16T10:00:23;14.45;;;10.35;;
26702;SDS011;14316;51.074;3.704;2024-02-16T10:02:49;21.25;;;13.05;;
26702;SDS011;14316;51.074;3.704;2024-02-16T10:05:18;17.13;;;10.02;;
26702;SDS011;14316;51.074;3.704;2024-02-16T10:07:46;19.63;;;11.47;;
26702;SDS011;14316;51.074;3.704;2024-02-16T10:10:22;16.77;;;10.50;;
26702;SDS011;14316;51.074;3.704;2024-02-16T10:12:48;23.52;;;14.85;;
26702;SDS011;14316;51.074;3.704;2024-02-16T10:15:21;31.63;;;17.17;;
26702;SDS011;14316;51.074;3.704;2024-02-16T10:18:03;27.08;;;17.05;;
26702;SDS011;14316;51.074;3.704;2024-02-16T10:20:32;21.27;;;14.93;;
26702;SDS011;14316;51.074;3.704;2024-02-16T10:23:03;21.17;;;13.70;;
26702;SDS011;14316;51.074;3.704;2024-02-16T10:25:29;28.27;;;17.40;;
26702;SDS011;14316;51.074;3.704;2024-02-16T10:27:55;16.20;;;9.50;;
26702;SDS011;14316;51.074;3.704;2024-02-16T10:30:23;24.83;;;14.95;;
26702;SDS011;14316;51.074;3.704;2024-02-16T10:32:58;28.10;;;20.58;;
26702;SDS011;14316;51.074;3.704;2024-02-16T10:35:25;26.33;;;16.50;;
26702;SDS011;14316;51.074;3.704;2024-02-16T10:37:52;16.65;;;10.40;;
26702;SDS011;14316;51.074;3.704;2024-02-16T10:40:20;26.00;;;18.77;;
26702;SDS011;14316;51.074;3.704;2024-02-16T10:42:49;24.70;;;15.80;;
26702;SDS011;14316;51.074;3.704;2024-02-16T10:45:18;29.02;;;19.73;;
26702;SDS011;14316;51.074;3.704;2024-02-16T10:47:44;34.05;;;22.73;;
26702;SDS011;14316;51.074;3.704;2024-02-16T10:50:10;28.95;;;18.35;;
26702;SDS011;14316;51.074;3.704;2024-02-16T10:52:37;35.58;;;27.00;;
26702;SDS011;14316;51.074;3.704;2024-02-16T10:55:06;38.08;;;29.70;;
26702;SDS011;14316;51.074;3.704;2024-02-16T10:57:37;34.97;;;24.90;;
26702;SDS011;14316;51.074;3.704;2024-02-16T11:00:08;42.90;;;29.50;;
26702;SDS011;14316;51.074;3.704;2024-02-16T11:02:53;45.33;;;29.60;;
26702;SDS011;14316;51.074;3.704;2024-02-16T11:08:11;35.30;;;26.73;;
26702;SDS011;14316;51.074;3.704;2024-02-16T11:10:38;33.40;;;27.60;;
26702;SDS011;14316;51.074;3.704;2024-02-16T11:13:04;35.67;;;25.27;;
26702;SDS011;14316;51.074;3.704;2024-02-16T11:15:33;35.10;;;25.38;;
26702;SDS011;14316;51.074;3.704;2024-02-16T11:18:01;32.47;;;23.08;;
26702;SDS011;14316;51.074;3.704;2024-02-16T11:20:28;32.13;;;23.95;;
26702;SDS011;14316;51.074;3.704;2024-02-16T11:23:04;27.20;;;18.02;;
26702;SDS011;14316;51.074;3.704;2024-02-16T11:25:32;22.95;;;17.55;;
26702;SDS011;14316;51.074;3.704;2024-02-16T11:27:58;25.85;;;18.17;;
26702;SDS011;14316;51.074;3.704;2024-02-16T11:30:25;19.75;;;14.00;;
26702;SDS011;14316;51.074;3.704;2024-02-16T11:32:51;23.05;;;18.13;;
26702;SDS011;14316;51.074;3.704;2024-02-16T11:35:17;24.83;;;18.30;;
26702;SDS011;14316;51.074;3.704;2024-02-16T11:37:43;24.65;;;18.00;;
26702;SDS011;14316;51.074;3.704;2024-02-16T11:40:13;23.48;;;18.33;;
26702;SDS011;14316;51.074;3.704;2024-02-16T11:42:39;19.17;;;15.68;;
26702;SDS011;14316;51.074;3.704;2024-02-16T11:45:06;20.88;;;16.45;;
26702;SDS011;14316;51.074;3.704;2024-02-16T11:47:36;18.45;;;15.68;;
26702;SDS011;14316;51.074;3.704;2024-02-16T11:50:05;17.40;;;14.75;;
26702;SDS011;14316;51.074;3.704;2024-02-16T11:52:36;14.43;;;12.63;;
26702;SDS011;14316;51.074;3.704;2024-02-16T11:55:03;16.42;;;14.18;;
26702;SDS011;14316;51.074;3.704;2024-02-16T11:57:33;16.27;;;13.82;;
26702;SDS011;14316;51.074;3.704;2024-02-16T12:00:00;16.90;;;13.60;;
26702;SDS011;14316;51.074;3.704;2024-02-16T12:02:36;18.58;;;13.93;;
26702;SDS011;14316;51.074;3.704;2024-02-16T12:05:03;16.40;;;13.85;;
26702;SDS011;14316;51.074;3.704;2024-02-16T12:07:29;16.63;;;13.13;;
26702;SDS011;14316;51.074;3.704;2024-02-16T12:09:59;14.52;;;12.10;;
26702;SDS011;14316;51.074;3.704;2024-02-16T12:12:26;13.48;;;12.05;;
26702;SDS011;14316;51.074;3.704;2024-02-16T12:14:53;13.88;;;12.57;;
26702;SDS011;14316;51.074;3.704;2024-02-16T12:17:19;14.48;;;12.90;;
26702;SDS011;14316;51.074;3.704;2024-02-16T12:19:45;13.18;;;11.80;;
26702;SDS011;14316;51.074;3.704;2024-02-16T12:22:16;12.43;;;10.68;;
26702;SDS011;14316;51.074;3.704;2024-02-16T12:24:44;16.13;;;9.75;;
26702;SDS011;14316;51.074;3.704;2024-02-16T12:27:13;11.27;;;9.70;;
26702;SDS011;14316;51.074;3.704;2024-02-16T12:29:39;11.13;;;9.90;;
26702;SDS011;14316;51.074;3.704;2024-02-16T12:32:05;10.68;;;9.57;;
26702;SDS011;14316;51.074;3.704;2024-02-16T12:34:31;10.23;;;9.32;;
26702;SDS011;14316;51.074;3.704;2024-02-16T12:36:58;11.63;;;8.60;;
26702;SDS011;14316;51.074;3.704;2024-02-16T12:39:24;9.55;;;8.63;;
26702;SDS011;14316;51.074;3.704;2024-02-16T12:41:49;9.65;;;8.65;;
26702;SDS011;14316;51.074;3.704;2024-02-16T12:44:15;7.95;;;7.07;;
26702;SDS011;14316;51.074;3.704;2024-02-16T12:46:41;8.82;;;7.95;;
26702;SDS011;14316;51.074;3.704;2024-02-16T12:49:08;9.32;;;8.20;;
26702;SDS011;14316;51.074;3.704;2024-02-16T12:51:34;8.95;;;8.00;;
26702;SDS011;14316;51.074;3.704;2024-02-16T12:54:00;8.48;;;7.43;;
26702;SDS011;14316;51.074;3.704;2024-02-16T12:56:29;7.30;;;6.60;;
26702;SDS011;14316;51.074;3.704;2024-02-16T12:58:55;8.32;;;7.07;;
26702;SDS011;14316;51.074;3.704;2024-02-16T13:01:21;8.35;;;7.05;;
26702;SDS011;14316;51.074;3.704;2024-02-16T13:03:47;6.72;;;6.13;;
26702;SDS011;14316;51.074;3.704;2024-02-16T13:06:13;7.60;;;6.32;;
26702;SDS011;14316;51.074;3.704;2024-02-16T13:08:39;7.43;;;6.72;;
26702;SDS011;14316;51.074;3.704;2024-02-16T13:11:05;7.25;;;6.55;;
26702;SDS011;14316;51.074;3.704;2024-02-16T13:13:31;7.80;;;7.00;;
26702;SDS011;14316;51.074;3.704;2024-02-16T13:15:57;7.78;;;6.75;;
26702;SDS011;14316;51.074;3.704;2024-02-16T13:18:24;7.40;;;6.70;;
26702;SDS011;14316;51.074;3.704;2024-02-16T13:20:50;6.85;;;6.10;;
26702;SDS011;14316;51.074;3.704;2024-02-16T13:23:16;7.47;;;6.15;;
26702;SDS011;14316;51.074;3.704;2024-02-16T13:25:42;7.40;;;6.70;;
26702;SDS011;14316;51.074;3.704;2024-02-16T13:28:08;8.40;;;7.45;;
26702;SDS011;14316;51.074;3.704;2024-02-16T13:30:34;7.75;;;7.05;;
26702;SDS011;14316;51.074;3.704;2024-02-16T13:32:59;9.13;;;7.35;;
26702;SDS011;14316;51.074;3.704;2024-02-16T13:35:25;8.27;;;7.18;;
26702;SDS011;14316;51.074;3.704;2024-02-16T13:37:51;9.80;;;6.80;;
26702;SDS011;14316;51.074;3.704;2024-02-16T13:40:17;7.57;;;6.25;;
26702;SDS011;14316;51.074;3.704;2024-02-16T13:42:43;6.82;;;5.97;;
26702;SDS011;14316;51.074;3.704;2024-02-16T13:45:10;5.28;;;4.45;;
26702;SDS011;14316;51.074;3.704;2024-02-16T13:47:36;3.60;;;3.30;;
26702;SDS011;14316;51.074;3.704;2024-02-16T13:50:05;4.05;;;3.33;;
26702;SDS011;14316;51.074;3.704;2024-02-16T13:52:34;4.57;;;3.10;;
26702;SDS011;14316;51.074;3.704;2024-02-16T13:55:00;4.38;;;3.25;;
26702;SDS011;14316;51.074;3.704;2024-02-16T13:57:26;4.32;;;3.25;;
26702;SDS011;14316;51.074;3.704;2024-02-16T13:59:52;6.07;;;3.70;;
26702;SDS011;14316;51.074;3.704;2024-02-16T14:02:18;5.82;;;3.60;;
26702;SDS011;14316;51.074;3.704;2024-02-16T14:04:44;4.82;;;3.60;;
26702;SDS011;14316;51.074;3.704;2024-02-16T14:07:11;5.20;;;3.35;;
26702;SDS011;14316;51.074;3.704;2024-02-16T14:09:37;6.15;;;3.63;;
26702;SDS011;14316;51.074;3.704;2024-02-16T14:12:03;7.22;;;4.07;;
26702;SDS011;14316;51.074;3.704;2024-02-16T14:14:28;6.18;;;3.53;;
26702;SDS011;14316;51.074;3.704;2024-02-16T14:16:54;4.40;;;3.58;;
26702;SDS011;14316;51.074;3.704;2024-02-16T14:19:21;4.72;;;3.40;;
26702;SDS011;14316;51.074;3.704;2024-02-16T14:21:47;4.70;;;3.65;;
26702;SDS011;14316;51.074;3.704;2024-02-16T14:24:13;5.15;;;3.60;;
26702;SDS011;14316;51.074;3.704;2024-02-16T14:26:39;5.75;;;3.75;;
26702;SDS011;14316;51.074;3.704;2024-02-16T14:29:05;7.18;;;3.70;;
26702;SDS011;14316;51.074;3.704;2024-02-16T14:31:33;7.20;;;4.47;;
26702;SDS011;14316;51.074;3.704;2024-02-16T14:33:59;5.18;;;4.43;;
26702;SDS011;14316;51.074;3.704;2024-02-16T14:36:25;6.75;;;4.18;;
26702;SDS011;14316;51.074;3.704;2024-02-16T14:38:51;5.55;;;3.50;;
26702;SDS011;14316;51.074;3.704;2024-02-16T14:41:17;5.45;;;4.47;;